sensor_id;sensor_type;location;lat;lon;timestamp;temperature;humidity
2441;DHT22;1231;53.988;9.470;2023-08-24T00:05:54;16.60;84.80
2441;DHT22;1231;53.988;9.470;2023-08-24T00:08:43;16.60;85.00
2441;DHT22;1231;53.988;9.470;2023-08-24T00:11:32;16.50;85.00
2441;DHT22;1231;53.988;9.470;2023-08-24T00:28:32;16.20;84.90
2441;DHT22;1231;53.988;9.470;2023-08-24T00:34:11;16.10;85.20
2441;DHT22;1231;53.988;9.470;2023-08-24T00:39:50;16.00;85.20
2441;DHT22;1231;53.988;9.470;2023-08-24T00:42:41;15.90;85.30
2441;DHT22;1231;53.988;9.470;2023-08-24T00:51:15;15.90;85.40
2441;DHT22;1231;53.988;9.470;2023-08-24T00:54:04;15.80;85.50
2441;DHT22;1231;53.988;9.470;2023-08-24T00:56:54;15.80;85.40
2441;DHT22;1231;53.988;9.470;2023-08-24T00:59:44;15.90;85.50
2441;DHT22;1231;53.988;9.470;2023-08-24T01:02:34;15.70;85.60
2441;DHT22;1231;53.988;9.470;2023-08-24T01:08:13;15.80;85.50
2441;DHT22;1231;53.988;9.470;2023-08-24T01:11:20;15.80;85.60
2441;DHT22;1231;53.988;9.470;2023-08-24T01:20:08;15.60;85.80
2441;DHT22;1231;53.988;9.470;2023-08-24T01:23:15;15.60;85.90
2441;DHT22;1231;53.988;9.470;2023-08-24T01:37:31;15.70;86.20
2441;DHT22;1231;53.988;9.470;2023-08-24T01:43:18;15.50;86.30
2441;DHT22;1231;53.988;9.470;2023-08-24T01:51:50;15.30;86.30
2441;DHT22;1231;53.988;9.470;2023-08-24T02:03:09;15.20;86.00
2441;DHT22;1231;53.988;9.470;2023-08-24T02:08:47;15.10;85.90
2441;DHT22;1231;53.988;9.470;2023-08-24T02:25:47;14.90;86.30
2441;DHT22;1231;53.988;9.470;2023-08-24T02:34:16;14.90;86.40
2441;DHT22;1231;53.988;9.470;2023-08-24T02:59:43;14.90;87.00
2441;DHT22;1231;53.988;9.470;2023-08-24T03:02:33;14.90;87.10
2441;DHT22;1231;53.988;9.470;2023-08-24T03:05:22;14.90;87.10
2441;DHT22;1231;53.988;9.470;2023-08-24T03:16:41;14.80;87.00
2441;DHT22;1231;53.988;9.470;2023-08-24T03:27:59;14.90;87.00
2441;DHT22;1231;53.988;9.470;2023-08-24T03:30:51;14.90;87.10
2441;DHT22;1231;53.988;9.470;2023-08-24T03:36:30;14.80;87.10
2441;DHT22;1231;53.988;9.470;2023-08-24T03:42:09;14.90;87.10
2441;DHT22;1231;53.988;9.470;2023-08-24T03:47:51;14.80;87.10
2441;DHT22;1231;53.988;9.470;2023-08-24T03:53:30;14.80;87.10
2441;DHT22;1231;53.988;9.470;2023-08-24T04:01:58;14.70;87.30
2441;DHT22;1231;53.988;9.470;2023-08-24T04:04:51;14.60;87.30
2441;DHT22;1231;53.988;9.470;2023-08-24T04:07:40;14.60;87.20
2441;DHT22;1231;53.988;9.470;2023-08-24T04:10:30;14.50;87.50
2441;DHT22;1231;53.988;9.470;2023-08-24T04:21:48;14.50;87.30
2441;DHT22;1231;53.988;9.470;2023-08-24T04:33:05;14.60;87.30
2441;DHT22;1231;53.988;9.470;2023-08-24T04:35:55;14.60;87.30
2441;DHT22;1231;53.988;9.470;2023-08-24T04:44:23;14.60;87.60
2441;DHT22;1231;53.988;9.470;2023-08-24T04:52:52;14.50;87.70
2441;DHT22;1231;53.988;9.470;2023-08-24T04:55:42;14.50;87.90
2441;DHT22;1231;53.988;9.470;2023-08-24T04:58:33;14.50;88.20
2441;DHT22;1231;53.988;9.470;2023-08-24T05:01:23;14.60;88.10
2441;DHT22;1231;53.988;9.470;2023-08-24T05:07:03;14.60;88.00
2441;DHT22;1231;53.988;9.470;2023-08-24T05:15:33;14.70;88.00
2441;DHT22;1231;53.988;9.470;2023-08-24T05:18:22;14.80;87.90
2441;DHT22;1231;53.988;9.470;2023-08-24T05:21:11;14.80;87.90
2441;DHT22;1231;53.988;9.470;2023-08-24T05:29:39;14.90;87.60
2441;DHT22;1231;53.988;9.470;2023-08-24T05:38:07;15.20;87.50
2441;DHT22;1231;53.988;9.470;2023-08-24T05:55:04;15.30;87.50
2441;DHT22;1231;53.988;9.470;2023-08-24T06:00:43;15.30;87.50
2441;DHT22;1231;53.988;9.470;2023-08-24T06:03:32;15.40;87.60
2441;DHT22;1231;53.988;9.470;2023-08-24T06:06:21;15.50;87.60
2441;DHT22;1231;53.988;9.470;2023-08-24T06:12:00;15.50;87.80
2441;DHT22;1231;53.988;9.470;2023-08-24T06:14:49;15.70;87.90
2441;DHT22;1231;53.988;9.470;2023-08-24T06:17:38;15.80;88.10
2441;DHT22;1231;53.988;9.470;2023-08-24T06:28:57;16.20;88.70
2441;DHT22;1231;53.988;9.470;2023-08-24T06:34:35;16.60;88.80
2441;DHT22;1231;53.988;9.470;2023-08-24T06:40:14;17.00;89.40
2441;DHT22;1231;53.988;9.470;2023-08-24T06:54:23;18.20;89.00
2441;DHT22;1231;53.988;9.470;2023-08-24T06:57:12;18.30;88.90
2441;DHT22;1231;53.988;9.470;2023-08-24T07:05:46;18.90;88.10
2441;DHT22;1231;53.988;9.470;2023-08-24T07:08:35;19.10;87.70
2441;DHT22;1231;53.988;9.470;2023-08-24T07:14:14;19.50;87.10
2441;DHT22;1231;53.988;9.470;2023-08-24T07:17:03;19.60;87.00
2441;DHT22;1231;53.988;9.470;2023-08-24T07:22:42;19.80;86.20
2441;DHT22;1231;53.988;9.470;2023-08-24T07:25:31;19.80;86.00
2441;DHT22;1231;53.988;9.470;2023-08-24T07:31:11;20.00;85.20
2441;DHT22;1231;53.988;9.470;2023-08-24T07:42:29;20.30;84.50
2441;DHT22;1231;53.988;9.470;2023-08-24T07:45:18;20.40;83.90
2441;DHT22;1231;53.988;9.470;2023-08-24T07:50:57;20.60;82.90
2441;DHT22;1231;53.988;9.470;2023-08-24T07:59:25;21.10;82.00
2441;DHT22;1231;53.988;9.470;2023-08-24T08:05:04;21.10;81.40
2441;DHT22;1231;53.988;9.470;2023-08-24T08:10:44;20.80;80.40
2441;DHT22;1231;53.988;9.470;2023-08-24T08:13:33;20.90;80.30
2441;DHT22;1231;53.988;9.470;2023-08-24T08:16:22;20.90;80.20
2441;DHT22;1231;53.988;9.470;2023-08-24T08:19:11;21.10;79.80
2441;DHT22;1231;53.988;9.470;2023-08-24T08:24:49;21.30;79.50
2441;DHT22;1231;53.988;9.470;2023-08-24T08:30:28;21.60;78.30
2441;DHT22;1231;53.988;9.470;2023-08-24T08:33:18;21.80;77.90
2441;DHT22;1231;53.988;9.470;2023-08-24T08:38:58;22.10;76.70
2441;DHT22;1231;53.988;9.470;2023-08-24T08:44:38;22.40;75.40
2441;DHT22;1231;53.988;9.470;2023-08-24T08:47:27;22.30;74.70
2441;DHT22;1231;53.988;9.470;2023-08-24T08:53:06;22.90;73.00
2441;DHT22;1231;53.988;9.470;2023-08-24T09:04:29;23.30;71.30
2441;DHT22;1231;53.988;9.470;2023-08-24T09:07:18;23.40;70.80
2441;DHT22;1231;53.988;9.470;2023-08-24T09:10:08;23.60;69.50
2441;DHT22;1231;53.988;9.470;2023-08-24T09:12:57;23.80;68.50
2441;DHT22;1231;53.988;9.470;2023-08-24T09:15:47;23.80;68.50
2441;DHT22;1231;53.988;9.470;2023-08-24T09:18:37;23.80;67.90
2441;DHT22;1231;53.988;9.470;2023-08-24T09:21:27;23.70;67.40
2441;DHT22;1231;53.988;9.470;2023-08-24T09:24:16;23.80;67.30
2441;DHT22;1231;53.988;9.470;2023-08-24T09:30:06;23.90;66.70
2441;DHT22;1231;53.988;9.470;2023-08-24T09:33:09;24.10;66.10
2441;DHT22;1231;53.988;9.470;2023-08-24T09:38:55;24.20;65.20
2441;DHT22;1231;53.988;9.470;2023-08-24T09:44:46;24.30;64.60
2441;DHT22;1231;53.988;9.470;2023-08-24T09:47:36;24.30;64.30
2441;DHT22;1231;53.988;9.470;2023-08-24T09:50:25;24.40;64.10
2441;DHT22;1231;53.988;9.470;2023-08-24T10:01:51;24.30;62.80
2441;DHT22;1231;53.988;9.470;2023-08-24T10:04:40;24.50;62.50
2441;DHT22;1231;53.988;9.470;2023-08-24T10:10:26;24.70;62.00
2441;DHT22;1231;53.988;9.470;2023-08-24T10:16:41;25.00;60.60
2441;DHT22;1231;53.988;9.470;2023-08-24T10:22:21;25.00;60.90
2441;DHT22;1231;53.988;9.470;2023-08-24T10:25:11;25.10;60.50
2441;DHT22;1231;53.988;9.470;2023-08-24T10:28:01;25.10;60.20
2441;DHT22;1231;53.988;9.470;2023-08-24T10:33:44;25.20;60.50
2441;DHT22;1231;53.988;9.470;2023-08-24T10:36:34;25.50;60.00
2441;DHT22;1231;53.988;9.470;2023-08-24T10:39:27;25.50;59.00
2441;DHT22;1231;53.988;9.470;2023-08-24T10:42:17;25.50;58.60
2441;DHT22;1231;53.988;9.470;2023-08-24T10:45:07;25.50;58.50
2441;DHT22;1231;53.988;9.470;2023-08-24T10:54:08;25.30;56.60
2441;DHT22;1231;53.988;9.470;2023-08-24T10:56:57;25.40;57.20
2441;DHT22;1231;53.988;9.470;2023-08-24T11:05:38;25.10;55.20
2441;DHT22;1231;53.988;9.470;2023-08-24T11:11:33;25.20;55.60
2441;DHT22;1231;53.988;9.470;2023-08-24T11:17:18;25.40;56.40
2441;DHT22;1231;53.988;9.470;2023-08-24T11:22:58;25.60;56.00
2441;DHT22;1231;53.988;9.470;2023-08-24T11:25:49;25.80;56.20
2441;DHT22;1231;53.988;9.470;2023-08-24T11:28:40;25.90;56.20
2441;DHT22;1231;53.988;9.470;2023-08-24T11:34:19;25.90;55.80
2441;DHT22;1231;53.988;9.470;2023-08-24T11:37:18;25.90;55.70
2441;DHT22;1231;53.988;9.470;2023-08-24T11:40:16;26.00;56.30
2441;DHT22;1231;53.988;9.470;2023-08-24T11:48:46;26.30;56.20
2441;DHT22;1231;53.988;9.470;2023-08-24T11:51:36;26.30;56.40
2441;DHT22;1231;53.988;9.470;2023-08-24T12:00:05;26.40;56.70
2441;DHT22;1231;53.988;9.470;2023-08-24T12:05:46;26.20;57.10
2441;DHT22;1231;53.988;9.470;2023-08-24T12:11:37;26.40;56.30
2441;DHT22;1231;53.988;9.470;2023-08-24T12:17:16;26.20;57.00
2441;DHT22;1231;53.988;9.470;2023-08-24T12:31:26;25.80;58.10
2441;DHT22;1231;53.988;9.470;2023-08-24T12:34:16;25.90;58.30
2441;DHT22;1231;53.988;9.470;2023-08-24T12:37:05;26.00;58.30
2441;DHT22;1231;53.988;9.470;2023-08-24T12:39:54;26.20;57.70
2441;DHT22;1231;53.988;9.470;2023-08-24T12:45:33;26.50;57.70
2441;DHT22;1231;53.988;9.470;2023-08-24T12:54:02;26.70;56.90
2441;DHT22;1231;53.988;9.470;2023-08-24T12:56:51;26.80;56.90
2441;DHT22;1231;53.988;9.470;2023-08-24T13:08:10;27.10;56.60
2441;DHT22;1231;53.988;9.470;2023-08-24T13:16:38;26.60;57.60
2441;DHT22;1231;53.988;9.470;2023-08-24T13:19:27;26.30;58.00
2441;DHT22;1231;53.988;9.470;2023-08-24T13:25:07;26.30;58.20
2441;DHT22;1231;53.988;9.470;2023-08-24T13:27:56;26.30;58.40
2441;DHT22;1231;53.988;9.470;2023-08-24T13:36:26;26.40;59.30
2441;DHT22;1231;53.988;9.470;2023-08-24T13:39:15;26.40;59.00
2441;DHT22;1231;53.988;9.470;2023-08-24T13:44:55;26.70;58.70
2441;DHT22;1231;53.988;9.470;2023-08-24T13:50:34;26.80;58.80
2441;DHT22;1231;53.988;9.470;2023-08-24T13:53:23;27.00;58.20
2441;DHT22;1231;53.988;9.470;2023-08-24T13:59:02;27.20;57.60
2441;DHT22;1231;53.988;9.470;2023-08-24T14:01:52;27.20;57.80
2441;DHT22;1231;53.988;9.470;2023-08-24T14:04:41;27.10;58.20
2441;DHT22;1231;53.988;9.470;2023-08-24T14:07:30;27.30;59.10
2441;DHT22;1231;53.988;9.470;2023-08-24T14:10:19;27.20;58.50
2441;DHT22;1231;53.988;9.470;2023-08-24T14:15:57;27.20;58.40
2441;DHT22;1231;53.988;9.470;2023-08-24T14:27:16;27.30;57.80
2441;DHT22;1231;53.988;9.470;2023-08-24T14:32:55;27.10;57.90
2441;DHT22;1231;53.988;9.470;2023-08-24T14:35:52;27.20;57.60
2441;DHT22;1231;53.988;9.470;2023-08-24T14:44:21;26.90;58.20
2441;DHT22;1231;53.988;9.470;2023-08-24T14:49:59;26.70;58.30
2441;DHT22;1231;53.988;9.470;2023-08-24T14:52:48;26.70;58.80
2441;DHT22;1231;53.988;9.470;2023-08-24T14:55:38;26.70;58.90
2441;DHT22;1231;53.988;9.470;2023-08-24T15:06:57;26.40;59.80
2441;DHT22;1231;53.988;9.470;2023-08-24T15:15:25;26.10;60.90
2441;DHT22;1231;53.988;9.470;2023-08-24T15:18:14;26.20;61.10
2441;DHT22;1231;53.988;9.470;2023-08-24T15:21:03;25.90;61.40
2441;DHT22;1231;53.988;9.470;2023-08-24T15:23:52;26.00;61.50
2441;DHT22;1231;53.988;9.470;2023-08-24T15:26:41;25.70;61.50
2441;DHT22;1231;53.988;9.470;2023-08-24T15:29:30;25.90;61.80
2441;DHT22;1231;53.988;9.470;2023-08-24T15:32:20;25.80;62.20
2441;DHT22;1231;53.988;9.470;2023-08-24T15:35:09;25.70;62.60
2441;DHT22;1231;53.988;9.470;2023-08-24T15:37:58;25.50;63.20
2441;DHT22;1231;53.988;9.470;2023-08-24T15:40:52;25.40;63.80
2441;DHT22;1231;53.988;9.470;2023-08-24T15:49:22;25.10;65.10
2441;DHT22;1231;53.988;9.470;2023-08-24T15:55:04;25.00;66.30
2441;DHT22;1231;53.988;9.470;2023-08-24T15:57:53;24.90;67.10
2441;DHT22;1231;53.988;9.470;2023-08-24T16:00:42;24.80;67.60
2441;DHT22;1231;53.988;9.470;2023-08-24T16:09:11;24.60;69.00
2441;DHT22;1231;53.988;9.470;2023-08-24T16:14:49;24.50;70.40
2441;DHT22;1231;53.988;9.470;2023-08-24T16:17:38;24.20;71.00
2441;DHT22;1231;53.988;9.470;2023-08-24T16:20:27;24.10;71.70
2441;DHT22;1231;53.988;9.470;2023-08-24T16:28:55;23.80;73.40
2441;DHT22;1231;53.988;9.470;2023-08-24T16:37:24;23.60;74.80
2441;DHT22;1231;53.988;9.470;2023-08-24T16:45:53;23.50;76.00
2441;DHT22;1231;53.988;9.470;2023-08-24T16:48:42;23.40;76.30
2441;DHT22;1231;53.988;9.470;2023-08-24T17:02:50;23.10;77.60
2441;DHT22;1231;53.988;9.470;2023-08-24T17:08:28;23.10;78.10
2441;DHT22;1231;53.988;9.470;2023-08-24T17:14:12;22.90;78.50
2441;DHT22;1231;53.988;9.470;2023-08-24T17:25:38;22.70;79.90
2441;DHT22;1231;53.988;9.470;2023-08-24T17:28:27;22.60;80.20
2441;DHT22;1231;53.988;9.470;2023-08-24T17:45:24;22.20;81.80
2441;DHT22;1231;53.988;9.470;2023-08-24T17:51:04;22.10;82.30
2441;DHT22;1231;53.988;9.470;2023-08-24T17:59:34;21.90;83.10
2441;DHT22;1231;53.988;9.470;2023-08-24T18:02:23;21.90;83.50
2441;DHT22;1231;53.988;9.470;2023-08-24T18:05:12;21.80;83.60
2441;DHT22;1231;53.988;9.470;2023-08-24T18:08:01;21.80;84.00
2441;DHT22;1231;53.988;9.470;2023-08-24T18:16:30;21.50;84.40
2441;DHT22;1231;53.988;9.470;2023-08-24T18:19:20;21.60;84.30
2441;DHT22;1231;53.988;9.470;2023-08-24T18:22:09;21.50;84.30
2441;DHT22;1231;53.988;9.470;2023-08-24T18:24:58;21.50;84.20
2441;DHT22;1231;53.988;9.470;2023-08-24T18:30:38;21.40;84.60
2441;DHT22;1231;53.988;9.470;2023-08-24T18:41:56;21.10;85.50
2441;DHT22;1231;53.988;9.470;2023-08-24T18:50:25;21.10;86.00
2441;DHT22;1231;53.988;9.470;2023-08-24T18:53:14;20.90;86.10
2441;DHT22;1231;53.988;9.470;2023-08-24T18:58:53;20.80;86.40
2441;DHT22;1231;53.988;9.470;2023-08-24T19:01:42;20.80;86.30
2441;DHT22;1231;53.988;9.470;2023-08-24T19:10:10;20.90;86.20
2441;DHT22;1231;53.988;9.470;2023-08-24T19:12:59;20.80;86.20
2441;DHT22;1231;53.988;9.470;2023-08-24T19:15:48;20.80;86.20
2441;DHT22;1231;53.988;9.470;2023-08-24T19:32:48;20.90;86.10
2441;DHT22;1231;53.988;9.470;2023-08-24T19:38:27;20.90;85.90
2441;DHT22;1231;53.988;9.470;2023-08-24T19:46:57;20.70;85.80
2441;DHT22;1231;53.988;9.470;2023-08-24T19:49:46;20.90;85.80
2441;DHT22;1231;53.988;9.470;2023-08-24T19:55:32;20.80;85.80
2441;DHT22;1231;53.988;9.470;2023-08-24T20:04:01;20.60;86.00
2441;DHT22;1231;53.988;9.470;2023-08-24T20:06:52;20.70;86.10
2441;DHT22;1231;53.988;9.470;2023-08-24T20:09:43;20.80;86.10
2441;DHT22;1231;53.988;9.470;2023-08-24T20:12:32;20.60;86.20
2441;DHT22;1231;53.988;9.470;2023-08-24T20:26:41;20.70;85.90
2441;DHT22;1231;53.988;9.470;2023-08-24T20:29:30;20.60;85.90
2441;DHT22;1231;53.988;9.470;2023-08-24T20:32:19;20.60;85.80
2441;DHT22;1231;53.988;9.470;2023-08-24T20:35:08;20.60;85.80
2441;DHT22;1231;53.988;9.470;2023-08-24T20:37:58;20.70;85.70
2441;DHT22;1231;53.988;9.470;2023-08-24T20:43:37;20.80;85.60
2441;DHT22;1231;53.988;9.470;2023-08-24T20:52:05;20.50;85.70
2441;DHT22;1231;53.988;9.470;2023-08-24T21:03:23;20.40;85.40
2441;DHT22;1231;53.988;9.470;2023-08-24T21:09:02;20.20;85.60
2441;DHT22;1231;53.988;9.470;2023-08-24T21:17:31;20.10;85.60
2441;DHT22;1231;53.988;9.470;2023-08-24T21:20:20;20.10;85.50
2441;DHT22;1231;53.988;9.470;2023-08-24T21:23:10;20.10;85.50
2441;DHT22;1231;53.988;9.470;2023-08-24T21:25:59;20.10;85.60
2441;DHT22;1231;53.988;9.470;2023-08-24T21:28:48;20.20;85.60
2441;DHT22;1231;53.988;9.470;2023-08-24T21:37:16;19.90;85.80
2441;DHT22;1231;53.988;9.470;2023-08-24T21:40:06;19.90;85.70
2441;DHT22;1231;53.988;9.470;2023-08-24T21:42:55;19.90;85.70
2441;DHT22;1231;53.988;9.470;2023-08-24T21:57:02;19.80;85.90
2441;DHT22;1231;53.988;9.470;2023-08-24T21:59:51;20.00;85.80
2441;DHT22;1231;53.988;9.470;2023-08-24T22:05:30;19.70;86.00
2441;DHT22;1231;53.988;9.470;2023-08-24T22:08:20;19.70;86.00
2441;DHT22;1231;53.988;9.470;2023-08-24T22:11:10;19.80;86.20
2441;DHT22;1231;53.988;9.470;2023-08-24T22:13:59;19.70;86.20
2441;DHT22;1231;53.988;9.470;2023-08-24T22:19:38;19.80;86.10
2441;DHT22;1231;53.988;9.470;2023-08-24T22:22:29;19.70;86.10
2441;DHT22;1231;53.988;9.470;2023-08-24T22:28:08;19.70;86.20
2441;DHT22;1231;53.988;9.470;2023-08-24T22:39:26;19.60;86.10
2441;DHT22;1231;53.988;9.470;2023-08-24T22:45:05;19.80;86.10
2441;DHT22;1231;53.988;9.470;2023-08-24T22:50:44;19.80;86.10
2441;DHT22;1231;53.988;9.470;2023-08-24T23:07:41;19.60;86.20
2441;DHT22;1231;53.988;9.470;2023-08-24T23:16:09;19.50;86.00
2441;DHT22;1231;53.988;9.470;2023-08-24T23:18:59;19.50;86.00
2441;DHT22;1231;53.988;9.470;2023-08-24T23:30:17;19.30;86.30
2441;DHT22;1231;53.988;9.470;2023-08-24T23:33:07;19.30;86.40
2441;DHT22;1231;53.988;9.470;2023-08-24T23:35:56;19.20;86.40
2441;DHT22;1231;53.988;9.470;2023-08-24T23:44:24;19.10;86.80
2441;DHT22;1231;53.988;9.470;2023-08-24T23:50:03;19.00;86.80
2441;DHT22;1231;53.988;9.470;2023-08-24T23:52:52;19.10;86.90
2441;DHT22;1231;53.988;9.470;2023-08-24T23:55:42;18.90;87.00
